sensor_id;sensor_type;location;lat;lon;timestamp;pressure;altitude;pressure_sealevel;temperature;humidity
48089;BME280;33867;50.314;7.802;2022-08-16T00:02:39;99569.44;;;17.72;68.09
48089;BME280;33867;50.314;7.802;2022-08-16T00:06:21;99579.78;;;17.09;73.80
48089;BME280;33867;50.314;7.802;2022-08-16T00:09:51;99575.91;;;17.45;69.45
48089;BME280;33867;50.314;7.802;2022-08-16T00:13:29;99579.44;;;17.52;69.37
48089;BME280;33867;50.314;7.802;2022-08-16T00:17:07;99578.00;;;17.63;68.94
48089;BME280;33867;50.314;7.802;2022-08-16T00:20:41;99590.81;;;17.69;68.47
48089;BME280;33867;50.314;7.802;2022-08-16T00:24:30;99590.41;;;17.72;68.36
48089;BME280;33867;50.314;7.802;2022-08-16T00:32:08;99590.78;;;17.62;68.91
48089;BME280;33867;50.314;7.802;2022-08-16T00:36:11;99599.16;;;17.61;68.66
48089;BME280;33867;50.314;7.802;2022-08-16T00:57:17;99591.78;;;17.35;69.76
48089;BME280;33867;50.314;7.802;2022-08-16T01:06:07;99595.34;;;17.29;69.50
48089;BME280;33867;50.314;7.802;2022-08-16T01:23:26;99603.97;;;16.91;71.46
48089;BME280;33867;50.314;7.802;2022-08-16T01:27:53;99601.91;;;16.93;70.90
48089;BME280;33867;50.314;7.802;2022-08-16T01:36:49;99591.41;;;16.83;71.36
48089;BME280;33867;50.314;7.802;2022-08-16T01:41:45;99593.69;;;16.80;71.77
48089;BME280;33867;50.314;7.802;2022-08-16T01:45:55;99586.00;;;16.90;71.02
48089;BME280;33867;50.314;7.802;2022-08-16T01:54:27;99588.16;;;16.66;71.86
48089;BME280;33867;50.314;7.802;2022-08-16T01:58:37;99583.56;;;16.67;72.08
48089;BME280;33867;50.314;7.802;2022-08-16T02:07:06;99575.81;;;16.64;71.97
48089;BME280;33867;50.314;7.802;2022-08-16T02:10:47;99577.91;;;16.62;72.16
48089;BME280;33867;50.314;7.802;2022-08-16T02:19:09;99581.38;;;16.49;72.82
48089;BME280;33867;50.314;7.802;2022-08-16T02:27:41;99582.59;;;16.40;73.31
48089;BME280;33867;50.314;7.802;2022-08-16T02:36:07;99575.06;;;16.42;72.97
48089;BME280;33867;50.314;7.802;2022-08-16T02:50:11;99589.81;;;16.26;74.27
48089;BME280;33867;50.314;7.802;2022-08-16T02:54:29;99580.84;;;16.26;73.50
48089;BME280;33867;50.314;7.802;2022-08-16T03:03:23;99590.22;;;16.23;73.59
48089;BME280;33867;50.314;7.802;2022-08-16T03:25:45;99595.19;;;16.20;74.06
48089;BME280;33867;50.314;7.802;2022-08-16T03:43:32;99583.06;;;16.16;74.84
48089;BME280;33867;50.314;7.802;2022-08-16T03:47:45;99592.69;;;16.18;74.25
48089;BME280;33867;50.314;7.802;2022-08-16T03:52:05;99589.38;;;16.23;73.78
48089;BME280;33867;50.314;7.802;2022-08-16T04:00:59;99613.56;;;16.18;74.45
48089;BME280;33867;50.314;7.802;2022-08-16T04:10:00;99624.97;;;16.06;75.24
48089;BME280;33867;50.314;7.802;2022-08-16T04:14:21;99614.31;;;16.05;75.26
48089;BME280;33867;50.314;7.802;2022-08-16T04:18:00;99607.19;;;16.04;75.34
48089;BME280;33867;50.314;7.802;2022-08-16T04:26:09;99609.78;;;16.12;74.20
48089;BME280;33867;50.314;7.802;2022-08-16T04:29:52;99615.16;;;16.05;75.20
48089;BME280;33867;50.314;7.802;2022-08-16T04:37:06;99614.00;;;15.93;75.65
48089;BME280;33867;50.314;7.802;2022-08-16T04:41:02;99614.50;;;16.03;74.77
48089;BME280;33867;50.314;7.802;2022-08-16T04:44:29;99615.59;;;16.09;74.63
48089;BME280;33867;50.314;7.802;2022-08-16T04:48:18;99611.47;;;16.13;74.34
48089;BME280;33867;50.314;7.802;2022-08-16T04:51:55;99613.91;;;16.08;74.34
48089;BME280;33867;50.314;7.802;2022-08-16T04:55:45;99623.06;;;16.00;75.03
48089;BME280;33867;50.314;7.802;2022-08-16T04:59:44;99627.34;;;16.16;74.51
48089;BME280;33867;50.314;7.802;2022-08-16T05:03:18;99630.06;;;16.16;74.46
48089;BME280;33867;50.314;7.802;2022-08-16T05:06:48;99628.81;;;16.19;74.10
48089;BME280;33867;50.314;7.802;2022-08-16T05:10:52;99630.19;;;16.08;75.08
48089;BME280;33867;50.314;7.802;2022-08-16T05:14:55;99636.97;;;16.19;74.26
48089;BME280;33867;50.314;7.802;2022-08-16T05:18:51;99639.97;;;16.24;73.79
48089;BME280;33867;50.314;7.802;2022-08-16T05:23:01;99646.16;;;16.18;74.62
48089;BME280;33867;50.314;7.802;2022-08-16T05:26:40;99650.56;;;16.19;74.71
48089;BME280;33867;50.314;7.802;2022-08-16T05:34:35;99660.47;;;16.33;73.87
48089;BME280;33867;50.314;7.802;2022-08-16T05:38:20;99657.03;;;16.46;73.63
48089;BME280;33867;50.314;7.802;2022-08-16T05:41:47;99661.88;;;16.50;73.24
48089;BME280;33867;50.314;7.802;2022-08-16T05:45:06;99661.09;;;16.28;74.47
48089;BME280;33867;50.314;7.802;2022-08-16T05:48:27;99650.38;;;16.48;73.64
48089;BME280;33867;50.314;7.802;2022-08-16T05:51:54;99651.78;;;16.44;73.67
48089;BME280;33867;50.314;7.802;2022-08-16T05:55:13;99655.34;;;16.45;73.39
48089;BME280;33867;50.314;7.802;2022-08-16T05:58:33;99660.53;;;16.40;75.32
48089;BME280;33867;50.314;7.802;2022-08-16T06:01:53;99665.44;;;16.23;77.58
48089;BME280;33867;50.314;7.802;2022-08-16T06:05:18;99671.00;;;16.15;78.45
48089;BME280;33867;50.314;7.802;2022-08-16T06:08:38;99667.53;;;15.99;80.05
48089;BME280;33867;50.314;7.802;2022-08-16T06:11:58;99668.59;;;15.98;79.78
48089;BME280;33867;50.314;7.802;2022-08-16T06:15:20;99672.97;;;15.99;81.07
48089;BME280;33867;50.314;7.802;2022-08-16T06:18:40;99672.78;;;16.29;78.73
48089;BME280;33867;50.314;7.802;2022-08-16T06:22:03;99674.00;;;17.23;75.63
48089;BME280;33867;50.314;7.802;2022-08-16T06:25:27;99678.19;;;18.47;72.17
48089;BME280;33867;50.314;7.802;2022-08-16T06:28:48;99666.97;;;19.59;68.04
48089;BME280;33867;50.314;7.802;2022-08-16T06:32:14;99663.59;;;20.45;65.16
48089;BME280;33867;50.314;7.802;2022-08-16T06:35:34;99665.56;;;21.36;62.83
48089;BME280;33867;50.314;7.802;2022-08-16T06:38:54;99654.72;;;21.59;61.36
48089;BME280;33867;50.314;7.802;2022-08-16T06:42:19;99666.00;;;22.35;60.30
48089;BME280;33867;50.314;7.802;2022-08-16T06:45:49;99665.91;;;23.00;58.17
48089;BME280;33867;50.314;7.802;2022-08-16T06:49:13;99651.56;;;23.38;57.61
48089;BME280;33867;50.314;7.802;2022-08-16T06:52:33;99659.91;;;24.00;56.13
48089;BME280;33867;50.314;7.802;2022-08-16T06:55:59;99659.41;;;24.70;54.48
48089;BME280;33867;50.314;7.802;2022-08-16T06:59:33;99662.22;;;24.92;52.33
48089;BME280;33867;50.314;7.802;2022-08-16T07:02:54;99653.75;;;25.38;52.22
48089;BME280;33867;50.314;7.802;2022-08-16T07:06:15;99663.44;;;25.45;51.36
48089;BME280;33867;50.314;7.802;2022-08-16T07:09:37;99661.19;;;25.86;51.13
48089;BME280;33867;50.314;7.802;2022-08-16T07:12:57;99666.44;;;25.17;53.11
48089;BME280;33867;50.314;7.802;2022-08-16T07:16:17;99668.97;;;26.21;51.46
48089;BME280;33867;50.314;7.802;2022-08-16T07:19:38;99671.59;;;26.06;50.93
48089;BME280;33867;50.314;7.802;2022-08-16T07:22:59;99664.06;;;27.02;48.53
48089;BME280;33867;50.314;7.802;2022-08-16T07:26:39;99657.91;;;26.95;49.00
48089;BME280;33867;50.314;7.802;2022-08-16T07:29:58;99659.56;;;27.54;46.94
48089;BME280;33867;50.314;7.802;2022-08-16T07:33:18;99672.75;;;27.31;47.04
48089;BME280;33867;50.314;7.802;2022-08-16T07:36:38;99659.41;;;28.26;45.26
48089;BME280;33867;50.314;7.802;2022-08-16T07:39:58;99652.78;;;28.58;43.36
48089;BME280;33867;50.314;7.802;2022-08-16T07:43:18;99651.34;;;27.79;44.77
48089;BME280;33867;50.314;7.802;2022-08-16T07:46:37;99651.16;;;28.37;44.99
48089;BME280;33867;50.314;7.802;2022-08-16T07:50:03;99654.53;;;27.41;45.97
48089;BME280;33867;50.314;7.802;2022-08-16T07:53:25;99654.53;;;26.83;47.73
48089;BME280;33867;50.314;7.802;2022-08-16T07:56:48;99653.19;;;27.53;47.00
48089;BME280;33867;50.314;7.802;2022-08-16T08:00:09;99648.94;;;28.34;45.08
48089;BME280;33867;50.314;7.802;2022-08-16T08:03:33;99651.09;;;28.82;43.70
48089;BME280;33867;50.314;7.802;2022-08-16T08:06:53;99648.41;;;28.32;43.77
48089;BME280;33867;50.314;7.802;2022-08-16T08:10:30;99647.19;;;28.99;42.59
48089;BME280;33867;50.314;7.802;2022-08-16T08:14:25;99646.63;;;27.70;45.49
48089;BME280;33867;50.314;7.802;2022-08-16T08:18:21;99640.44;;;29.25;42.40
48089;BME280;33867;50.314;7.802;2022-08-16T08:34:32;99649.31;;;31.32;38.54
48089;BME280;33867;50.314;7.802;2022-08-16T08:53:38;99650.91;;;31.81;34.79
48089;BME280;33867;50.314;7.802;2022-08-16T08:58:08;99646.69;;;31.83;35.53
48089;BME280;33867;50.314;7.802;2022-08-16T09:13:53;99646.72;;;32.16;33.09
48089;BME280;33867;50.314;7.802;2022-08-16T09:17:31;99640.66;;;32.33;33.24
48089;BME280;33867;50.314;7.802;2022-08-16T09:21:26;99651.19;;;31.12;34.88
48089;BME280;33867;50.314;7.802;2022-08-16T09:25:10;99658.41;;;31.37;34.30
48089;BME280;33867;50.314;7.802;2022-08-16T09:28:47;99648.25;;;32.73;32.02
48089;BME280;33867;50.314;7.802;2022-08-16T09:32:54;99647.09;;;32.93;32.18
48089;BME280;33867;50.314;7.802;2022-08-16T09:36:37;99657.00;;;32.67;32.90
48089;BME280;33867;50.314;7.802;2022-08-16T09:40:17;99650.78;;;32.89;32.41
48089;BME280;33867;50.314;7.802;2022-08-16T09:43:55;99649.44;;;32.53;31.94
48089;BME280;33867;50.314;7.802;2022-08-16T09:47:29;99655.88;;;32.03;32.28
48089;BME280;33867;50.314;7.802;2022-08-16T09:50:48;99657.66;;;31.08;33.01
48089;BME280;33867;50.314;7.802;2022-08-16T09:54:08;99653.25;;;32.44;31.72
48089;BME280;33867;50.314;7.802;2022-08-16T09:57:40;99658.91;;;32.71;30.60
48089;BME280;33867;50.314;7.802;2022-08-16T10:02:09;99652.81;;;32.37;31.37
48089;BME280;33867;50.314;7.802;2022-08-16T13:15:50;99587.81;;;36.20;22.62
48089;BME280;33867;50.314;7.802;2022-08-16T13:19:21;99588.06;;;33.77;25.96
48089;BME280;33867;50.314;7.802;2022-08-16T13:22:48;99577.91;;;33.45;26.80
48089;BME280;33867;50.314;7.802;2022-08-16T13:26:16;99580.22;;;34.46;25.50
48089;BME280;33867;50.314;7.802;2022-08-16T13:29:44;99576.72;;;33.60;25.48
48089;BME280;33867;50.314;7.802;2022-08-16T13:33:03;99575.50;;;32.89;26.29
48089;BME280;33867;50.314;7.802;2022-08-16T13:36:23;99572.88;;;34.37;25.33
48089;BME280;33867;50.314;7.802;2022-08-16T13:39:43;99570.16;;;35.33;23.30
48089;BME280;33867;50.314;7.802;2022-08-16T13:43:05;99560.88;;;36.92;23.50
48089;BME280;33867;50.314;7.802;2022-08-16T13:46:33;99557.00;;;38.76;20.56
48089;BME280;33867;50.314;7.802;2022-08-16T13:50:16;99565.41;;;36.76;22.13
48089;BME280;33867;50.314;7.802;2022-08-16T13:53:40;99564.38;;;36.42;22.11
48089;BME280;33867;50.314;7.802;2022-08-16T13:57:03;99563.53;;;37.68;21.95
48089;BME280;33867;50.314;7.802;2022-08-16T14:00:22;99557.91;;;37.89;21.06
48089;BME280;33867;50.314;7.802;2022-08-16T14:03:44;99554.19;;;39.12;21.23
48089;BME280;33867;50.314;7.802;2022-08-16T14:10:38;99558.19;;;37.75;21.41
48089;BME280;33867;50.314;7.802;2022-08-16T14:13:58;99553.78;;;34.61;24.08
48089;BME280;33867;50.314;7.802;2022-08-16T14:17:39;99560.53;;;34.07;24.79
48089;BME280;33867;50.314;7.802;2022-08-16T14:21:29;99552.59;;;33.78;25.96
48089;BME280;33867;50.314;7.802;2022-08-16T14:50:04;99542.81;;;38.97;19.65
48089;BME280;33867;50.314;7.802;2022-08-16T14:54:37;99543.38;;;37.66;20.91
48089;BME280;33867;50.314;7.802;2022-08-16T15:07:52;99538.03;;;37.53;20.59
48089;BME280;33867;50.314;7.802;2022-08-16T16:31:09;99551.50;;;32.74;26.60
48089;BME280;33867;50.314;7.802;2022-08-16T18:58:52;99604.38;;;26.22;41.85
48089;BME280;33867;50.314;7.802;2022-08-16T19:02:43;99604.78;;;26.04;42.41
48089;BME280;33867;50.314;7.802;2022-08-16T19:06:08;99615.41;;;25.85;42.64
48089;BME280;33867;50.314;7.802;2022-08-16T19:09:30;99615.16;;;25.64;43.06
48089;BME280;33867;50.314;7.802;2022-08-16T19:12:49;99620.25;;;25.51;42.73
48089;BME280;33867;50.314;7.802;2022-08-16T19:16:08;99631.03;;;25.30;43.28
48089;BME280;33867;50.314;7.802;2022-08-16T19:19:27;99637.59;;;25.24;43.56
48089;BME280;33867;50.314;7.802;2022-08-16T19:22:47;99634.75;;;25.19;43.72
48089;BME280;33867;50.314;7.802;2022-08-16T19:26:18;99634.63;;;25.09;43.59
48089;BME280;33867;50.314;7.802;2022-08-16T19:29:37;99639.00;;;25.05;44.06
48089;BME280;33867;50.314;7.802;2022-08-16T19:32:57;99642.69;;;24.94;44.17
48089;BME280;33867;50.314;7.802;2022-08-16T19:36:16;99647.97;;;24.78;44.53
48089;BME280;33867;50.314;7.802;2022-08-16T19:39:36;99658.19;;;24.61;45.33
48089;BME280;33867;50.314;7.802;2022-08-16T19:42:59;99657.44;;;24.49;45.36
48089;BME280;33867;50.314;7.802;2022-08-16T19:46:18;99655.88;;;24.36;45.37
48089;BME280;33867;50.314;7.802;2022-08-16T19:49:38;99658.78;;;24.30;45.46
48089;BME280;33867;50.314;7.802;2022-08-16T19:53:06;99653.34;;;24.18;45.98
48089;BME280;33867;50.314;7.802;2022-08-16T19:56:28;99665.50;;;24.05;46.26
48089;BME280;33867;50.314;7.802;2022-08-16T19:59:48;99681.25;;;23.93;46.96
48089;BME280;33867;50.314;7.802;2022-08-16T20:03:18;99680.75;;;23.68;47.11
48089;BME280;33867;50.314;7.802;2022-08-16T20:06:39;99668.84;;;23.62;46.94
48089;BME280;33867;50.314;7.802;2022-08-16T20:10:05;99679.84;;;23.62;46.52
48089;BME280;33867;50.314;7.802;2022-08-16T20:17:32;99689.91;;;23.45;47.68
48089;BME280;33867;50.314;7.802;2022-08-16T20:20:54;99699.84;;;23.34;47.84
48089;BME280;33867;50.314;7.802;2022-08-16T20:24:14;99702.97;;;23.26;48.13
48089;BME280;33867;50.314;7.802;2022-08-16T20:27:33;99707.16;;;23.17;48.26
48089;BME280;33867;50.314;7.802;2022-08-16T20:30:52;99711.16;;;22.97;48.95
48089;BME280;33867;50.314;7.802;2022-08-16T20:34:11;99714.84;;;22.91;48.71
48089;BME280;33867;50.314;7.802;2022-08-16T20:37:33;99720.44;;;22.85;48.84
48089;BME280;33867;50.314;7.802;2022-08-16T20:40:55;99724.22;;;22.72;49.11
48089;BME280;33867;50.314;7.802;2022-08-16T20:44:14;99726.88;;;22.67;49.58
48089;BME280;33867;50.314;7.802;2022-08-16T20:47:34;99734.00;;;22.44;50.19
48089;BME280;33867;50.314;7.802;2022-08-16T20:50:53;99736.16;;;22.42;50.20
48089;BME280;33867;50.314;7.802;2022-08-16T20:54:13;99740.66;;;22.48;50.01
48089;BME280;33867;50.314;7.802;2022-08-16T20:57:32;99740.66;;;22.37;50.38
48089;BME280;33867;50.314;7.802;2022-08-16T21:00:51;99739.59;;;22.26;51.09
48089;BME280;33867;50.314;7.802;2022-08-16T21:04:10;99745.38;;;22.18;50.95
48089;BME280;33867;50.314;7.802;2022-08-16T21:07:29;99750.72;;;22.13;51.00
48089;BME280;33867;50.314;7.802;2022-08-16T21:10:49;99747.63;;;22.09;51.51
